SWA9865 KSMF-KSAN
Flight info
| Callsign | SWA9865 |
|---|---|
| Flight time | N/A |
| Altitude | 35000 |
| Route | FTHIL3 FRA EHF HUULK COMIX2 |
| Aircraft | B738/M-SDE2E3FGHIRWXY/LB1 |
Departure
| Time | 2026-05-07 04:09 |
|---|---|
| Airport | Sacramento International Airport (KSMF) |
Arrival
| Time | N/A |
|---|---|
| Airport | San Diego International Airport (KSAN) |
| Time | Latitude | Longitude | Altitude | Speed | Heading |
|---|---|---|---|---|---|
| 2026-05-07 03:44 | 38.69630 | -121.59512 | 34 ft | 0 kts | 157° |
| 2026-05-07 03:59 | 38.69637 | -121.59516 | 32 ft | 3 kts | 157° |
| 2026-05-07 03:59 | 38.69654 | -121.59525 | 31 ft | 3 kts | 157° |
| 2026-05-07 04:00 | 38.69665 | -121.59531 | 34 ft | 0 kts | 158° |
| 2026-05-07 04:00 | 38.69668 | -121.59532 | 34 ft | 0 kts | 156° |
| 2026-05-07 04:00 | 38.69675 | -121.59536 | 34 ft | 0 kts | 181° |
| 2026-05-07 04:01 | 38.69689 | -121.59528 | 34 ft | 3 kts | 245° |
| 2026-05-07 04:01 | 38.69690 | -121.59523 | 30 ft | 0 kts | 248° |
| 2026-05-07 04:05 | 38.69694 | -121.59547 | 33 ft | 11 kts | 284° |
| 2026-05-07 04:05 | 38.69701 | -121.59667 | 33 ft | 16 kts | 262° |
| 2026-05-07 04:05 | 38.69703 | -121.59787 | 33 ft | 14 kts | 270° |
| 2026-05-07 04:05 | 38.69769 | -121.59861 | 32 ft | 16 kts | 359° |
| 2026-05-07 04:06 | 38.69886 | -121.59861 | 32 ft | 18 kts | 359° |
| 2026-05-07 04:06 | 38.70052 | -121.59860 | 34 ft | 29 kts | 0° |
| 2026-05-07 04:06 | 38.70264 | -121.59857 | 34 ft | 31 kts | 0° |
| 2026-05-07 04:06 | 38.70468 | -121.59852 | 35 ft | 27 kts | 0° |
| 2026-05-07 04:07 | 38.70619 | -121.59849 | 32 ft | 15 kts | 0° |
| 2026-05-07 04:07 | 38.70650 | -121.59849 | 34 ft | 0 kts | 0° |
| 2026-05-07 04:07 | 38.70679 | -121.59851 | 34 ft | 17 kts | 351° |
| 2026-05-07 04:07 | 38.70723 | -121.59966 | 34 ft | 17 kts | 262° |
| 2026-05-07 04:08 | 38.70708 | -121.60099 | 33 ft | 10 kts | 253° |
| 2026-05-07 04:08 | 38.70659 | -121.60111 | 34 ft | 7 kts | 180° |
| 2026-05-07 04:08 | 38.70369 | -121.60116 | 37 ft | 89 kts | 181° |
| 2026-05-07 04:08 | 38.69450 | -121.60133 | 105 ft | 166 kts | 180° |
| 2026-05-07 04:09 | 38.68246 | -121.60119 | 1047 ft | 180 kts | 178° |
| 2026-05-07 04:09 | 38.66897 | -121.59749 | 1516 ft | 222 kts | 153° |
| 2026-05-07 04:09 | 38.65512 | -121.58582 | 2003 ft | 253 kts | 143° |
| 2026-05-07 04:09 | 38.64276 | -121.56851 | 2525 ft | 277 kts | 124° |
| 2026-05-07 04:10 | 38.63235 | -121.54696 | 3318 ft | 294 kts | 119° |
| 2026-05-07 04:10 | 38.62207 | -121.52485 | 3957 ft | 280 kts | 120° |
| 2026-05-07 04:10 | 38.61164 | -121.50425 | 4613 ft | 272 kts | 122° |
| 2026-05-07 04:10 | 38.60028 | -121.48427 | 4970 ft | 280 kts | 125° |
| 2026-05-07 04:11 | 38.58907 | -121.46415 | 5470 ft | 280 kts | 122° |
| 2026-05-07 04:11 | 38.57871 | -121.44339 | 5954 ft | 279 kts | 121° |
| 2026-05-07 04:11 | 38.56837 | -121.42209 | 6341 ft | 282 kts | 121° |
| 2026-05-07 04:11 | 38.55797 | -121.40071 | 6722 ft | 286 kts | 121° |
| 2026-05-07 04:12 | 38.54753 | -121.37899 | 7388 ft | 287 kts | 120° |
| 2026-05-07 04:12 | 38.53719 | -121.35746 | 8171 ft | 281 kts | 122° |
| 2026-05-07 04:12 | 38.52665 | -121.33603 | 8827 ft | 285 kts | 121° |
| 2026-05-07 04:12 | 38.51626 | -121.31488 | 9643 ft | 280 kts | 123° |
| 2026-05-07 04:13 | 38.50534 | -121.29368 | 10017 ft | 284 kts | 124° |
| 2026-05-07 04:13 | 38.49427 | -121.27208 | 10142 ft | 302 kts | 121° |
| 2026-05-07 04:13 | 38.48346 | -121.24804 | 10338 ft | 328 kts | 119° |
| 2026-05-07 04:13 | 38.47132 | -121.22217 | 10734 ft | 345 kts | 122° |
| 2026-05-07 04:14 | 38.45815 | -121.19621 | 11402 ft | 350 kts | 123° |
| 2026-05-07 04:14 | 38.44480 | -121.17048 | 12170 ft | 353 kts | 123° |
| 2026-05-07 04:14 | 38.43116 | -121.14422 | 12909 ft | 357 kts | 123° |
| 2026-05-07 04:14 | 38.41730 | -121.11743 | 13618 ft | 362 kts | 123° |
| 2026-05-07 04:15 | 38.40338 | -121.09040 | 14262 ft | 366 kts | 123° |
| 2026-05-07 04:15 | 38.38988 | -121.06405 | 14894 ft | 370 kts | 122° |
| 2026-05-07 04:15 | 38.37687 | -121.03866 | 16155 ft | 341 kts | 122° |
| 2026-05-07 04:15 | 38.36385 | -121.01305 | 16941 ft | 345 kts | 121° |
| 2026-05-07 04:16 | 38.35045 | -120.98671 | 17082 ft | 363 kts | 121° |
| 2026-05-07 04:16 | 38.33631 | -120.95900 | 17237 ft | 380 kts | 122° |
| 2026-05-07 04:16 | 38.32164 | -120.93030 | 17508 ft | 392 kts | 121° |
| 2026-05-07 04:16 | 38.30680 | -120.90130 | 18006 ft | 395 kts | 121° |
| 2026-05-07 04:17 | 38.29171 | -120.87189 | 18568 ft | 398 kts | 121° |
| 2026-05-07 04:17 | 38.27654 | -120.84232 | 19064 ft | 400 kts | 121° |
| 2026-05-07 04:17 | 38.26127 | -120.81257 | 19529 ft | 403 kts | 121° |
| 2026-05-07 04:17 | 38.24581 | -120.78248 | 20023 ft | 406 kts | 121° |
| 2026-05-07 04:18 | 38.23033 | -120.75237 | 20604 ft | 407 kts | 121° |
| 2026-05-07 04:18 | 38.21478 | -120.72215 | 21121 ft | 410 kts | 121° |
| 2026-05-07 04:18 | 38.19922 | -120.69194 | 21581 ft | 413 kts | 121° |
| 2026-05-07 04:18 | 38.18334 | -120.66110 | 22032 ft | 417 kts | 121° |
| 2026-05-07 04:19 | 38.16730 | -120.63002 | 22505 ft | 421 kts | 121° |
| 2026-05-07 04:19 | 38.15136 | -120.59916 | 22974 ft | 423 kts | 121° |
| 2026-05-07 04:19 | 38.13512 | -120.56773 | 23436 ft | 426 kts | 121° |
| 2026-05-07 04:19 | 38.11875 | -120.53610 | 23844 ft | 430 kts | 121° |
| 2026-05-07 04:20 | 38.10221 | -120.50415 | 24207 ft | 433 kts | 121° |
| 2026-05-07 04:20 | 38.08578 | -120.47244 | 24583 ft | 435 kts | 121° |
| 2026-05-07 04:20 | 38.06909 | -120.44027 | 24953 ft | 438 kts | 121° |
| 2026-05-07 04:21 | 38.03444 | -120.37571 | 25692 ft | 444 kts | 123° |
| 2026-05-07 04:21 | 38.01642 | -120.34370 | 26050 ft | 446 kts | 123° |
| 2026-05-07 04:21 | 37.99853 | -120.31197 | 26389 ft | 448 kts | 123° |
| 2026-05-07 04:21 | 37.98035 | -120.27952 | 26723 ft | 451 kts | 123° |
| 2026-05-07 04:22 | 37.96216 | -120.24691 | 27046 ft | 454 kts | 123° |
| 2026-05-07 04:22 | 37.94230 | -120.21547 | 27334 ft | 459 kts | 136° |
| 2026-05-07 04:22 | 37.91627 | -120.19253 | 27641 ft | 464 kts | 149° |
| 2026-05-07 04:22 | 37.88808 | -120.17241 | 28026 ft | 465 kts | 149° |
| 2026-05-07 04:23 | 37.85990 | -120.15205 | 28323 ft | 468 kts | 149° |
| 2026-05-07 04:23 | 37.83155 | -120.13132 | 28603 ft | 471 kts | 148° |
| 2026-05-07 04:23 | 37.80316 | -120.11037 | 28912 ft | 473 kts | 148° |
| 2026-05-07 04:23 | 37.77490 | -120.08940 | 29187 ft | 475 kts | 148° |
| 2026-05-07 04:24 | 37.74627 | -120.06809 | 29477 ft | 478 kts | 148° |
| 2026-05-07 04:24 | 37.71751 | -120.04668 | 29776 ft | 480 kts | 148° |
| 2026-05-07 04:24 | 37.68859 | -120.02517 | 30060 ft | 482 kts | 148° |
| 2026-05-07 04:24 | 37.65965 | -120.00369 | 30306 ft | 484 kts | 148° |
| 2026-05-07 04:25 | 37.63089 | -119.98234 | 30517 ft | 486 kts | 148° |
| 2026-05-07 04:25 | 37.60165 | -119.96067 | 30735 ft | 488 kts | 148° |
| 2026-05-07 04:25 | 37.57233 | -119.93897 | 31015 ft | 488 kts | 148° |
| 2026-05-07 04:25 | 37.54301 | -119.91729 | 31340 ft | 487 kts | 148° |
| 2026-05-07 04:26 | 37.51407 | -119.89591 | 31673 ft | 486 kts | 148° |
| 2026-05-07 04:26 | 37.48477 | -119.87430 | 31955 ft | 486 kts | 148° |
| 2026-05-07 04:26 | 37.46540 | -119.86001 | 32129 ft | 486 kts | 148° |
| 2026-05-07 04:26 | 37.43617 | -119.83847 | 32393 ft | 486 kts | 148° |
| 2026-05-07 04:27 | 37.39738 | -119.80991 | 32797 ft | 486 kts | 148° |
| 2026-05-07 04:27 | 37.37765 | -119.79540 | 32958 ft | 486 kts | 148° |
| 2026-05-07 04:27 | 37.34870 | -119.77413 | 33231 ft | 486 kts | 148° |
| 2026-05-07 04:27 | 37.31947 | -119.75266 | 33573 ft | 484 kts | 148° |
| 2026-05-07 04:28 | 37.29041 | -119.73134 | 33854 ft | 484 kts | 148° |
| 2026-05-07 04:28 | 37.26123 | -119.70995 | 34099 ft | 485 kts | 148° |
| 2026-05-07 04:28 | 37.23209 | -119.68861 | 34320 ft | 485 kts | 148° |
| 2026-05-07 04:28 | 37.20331 | -119.66755 | 34560 ft | 484 kts | 148° |
| 2026-05-07 04:29 | 37.17423 | -119.64629 | 34821 ft | 482 kts | 148° |
| 2026-05-07 04:29 | 37.14515 | -119.62504 | 35074 ft | 481 kts | 148° |